createdAt,value
2023-05-18T00:02:16.258Z,59.79
2023-05-18T00:04:38.722Z,59.60
2023-05-18T00:07:04.950Z,59.21
2023-05-18T00:09:27.064Z,58.89
2023-05-18T00:11:48.535Z,58.99
2023-05-18T00:14:10.047Z,58.92
2023-05-18T00:16:31.539Z,61.41
2023-05-18T00:18:54.791Z,59.93
2023-05-18T00:21:16.379Z,59.69
2023-05-18T00:23:39.461Z,59.26
2023-05-18T00:26:02.425Z,59.06
2023-05-18T00:28:24.278Z,59.00
2023-05-18T00:30:45.883Z,59.16
2023-05-18T00:33:07.458Z,59.03
2023-05-18T00:35:29.614Z,59.33
2023-05-18T00:37:51.357Z,58.83
2023-05-18T00:40:13.098Z,59.12
2023-05-18T00:42:34.736Z,59.13
2023-05-18T00:44:56.406Z,59.20
2023-05-18T00:47:21.653Z,58.89
2023-05-18T00:49:43.155Z,60.57
2023-05-18T00:52:05.690Z,61.27
2023-05-18T00:54:27.276Z,61.76
2023-05-18T00:56:48.834Z,60.64
2023-05-18T00:59:12.025Z,60.53
2023-05-18T01:01:37.005Z,60.27
2023-05-18T01:04:02.223Z,60.07
2023-05-18T01:06:26.688Z,63.21
2023-05-18T01:08:49.534Z,61.87
2023-05-18T01:11:40.593Z,61.32
2023-05-18T01:14:25.171Z,60.56
2023-05-18T01:17:12.775Z,61.32
2023-05-18T01:19:51.432Z,60.71
2023-05-18T01:22:29.701Z,60.59
2023-05-18T01:24:58.035Z,60.90
2023-05-18T01:27:24.666Z,60.63
2023-05-18T01:29:48.249Z,60.54
2023-05-18T01:32:09.699Z,61.07
2023-05-18T01:34:31.141Z,62.12
2023-05-18T01:36:52.990Z,62.40
2023-05-18T01:39:15.131Z,62.65
2023-05-18T01:41:41.967Z,63.99
2023-05-18T01:44:22.150Z,62.11
2023-05-18T01:46:53.140Z,63.86
2023-05-18T01:49:35.842Z,62.49
2023-05-18T01:52:01.669Z,62.08
2023-05-18T01:54:24.795Z,62.97
2023-05-18T01:56:48.902Z,62.28
2023-05-18T01:59:11.737Z,61.79
2023-05-18T02:01:33.312Z,61.76
2023-05-18T02:03:54.914Z,62.35
2023-05-18T02:06:16.759Z,62.56
2023-05-18T02:08:38.443Z,64.11
2023-05-18T02:10:59.888Z,62.91
2023-05-18T02:13:21.427Z,63.41
2023-05-18T02:15:44.472Z,63.53
2023-05-18T02:18:08.426Z,62.86
2023-05-18T02:20:33.473Z,62.76
2023-05-18T02:22:54.987Z,62.73
2023-05-18T02:25:17.130Z,62.24
2023-05-18T02:27:38.559Z,62.56
2023-05-18T02:30:00.053Z,61.68
2023-05-18T02:32:21.541Z,61.94
2023-05-18T02:34:43.114Z,61.49
2023-05-18T02:37:05.026Z,61.82
2023-05-18T02:39:26.514Z,61.51
2023-05-18T02:41:47.992Z,61.78
2023-05-18T02:44:09.460Z,61.68
2023-05-18T02:46:31.671Z,62.64
2023-05-18T02:48:53.228Z,62.69
2023-05-18T02:51:14.682Z,62.58
2023-05-18T02:53:36.172Z,62.82
2023-05-18T02:55:57.655Z,63.49
2023-05-18T02:58:20.506Z,62.78
2023-05-18T03:00:42.689Z,63.12
2023-05-18T03:03:04.300Z,62.71
2023-05-18T03:05:26.870Z,62.55
2023-05-18T03:07:51.025Z,65.02
2023-05-18T03:10:12.616Z,64.59
2023-05-18T03:12:34.317Z,64.88
2023-05-18T03:14:55.835Z,63.55
2023-05-18T03:17:17.319Z,63.08
2023-05-18T03:19:38.801Z,63.04
2023-05-18T03:22:00.871Z,63.40
2023-05-18T03:24:22.380Z,63.49
2023-05-18T03:26:44.460Z,63.30
2023-05-18T03:29:06.029Z,64.53
2023-05-18T03:31:27.558Z,66.03
2023-05-18T03:33:49.060Z,64.73
2023-05-18T03:36:10.942Z,63.90
2023-05-18T03:38:32.400Z,63.76
2023-05-18T03:40:55.020Z,64.64
2023-05-18T03:43:16.527Z,64.11
2023-05-18T03:45:38.115Z,64.01
2023-05-18T03:47:59.646Z,63.68
2023-05-18T03:50:21.345Z,64.07
2023-05-18T03:52:44.500Z,63.91
2023-05-18T03:55:06.567Z,64.26
2023-05-18T03:57:32.223Z,64.19
2023-05-18T03:59:53.744Z,63.89
2023-05-18T04:02:16.753Z,65.10
2023-05-18T04:04:42.001Z,64.14
2023-05-18T04:07:06.166Z,64.76
2023-05-18T04:09:28.421Z,66.19
2023-05-18T04:11:49.895Z,66.83
2023-05-18T04:14:12.157Z,66.60
2023-05-18T04:16:33.639Z,65.20
2023-05-18T04:18:55.131Z,65.13
2023-05-18T04:21:17.401Z,65.08
2023-05-18T04:23:39.040Z,64.36
2023-05-18T04:26:00.816Z,64.10
2023-05-18T04:28:22.256Z,63.32
2023-05-18T04:30:44.155Z,63.42
2023-05-18T04:33:06.739Z,65.10
2023-05-18T04:35:28.633Z,64.63
2023-05-18T04:37:50.193Z,65.49
2023-05-18T04:40:17.102Z,65.78
2023-05-18T04:42:45.218Z,65.69
2023-05-18T04:45:07.300Z,65.85
2023-05-18T04:47:30.211Z,64.61
2023-05-18T04:49:54.435Z,64.02
2023-05-18T04:52:15.907Z,64.40
2023-05-18T04:54:37.378Z,64.73
2023-05-18T04:56:59.339Z,65.10
2023-05-18T04:59:20.941Z,64.72
2023-05-18T05:01:42.480Z,63.92
2023-05-18T05:04:06.250Z,63.79
2023-05-18T05:06:27.802Z,64.00
2023-05-18T05:08:49.296Z,63.67
2023-05-18T05:11:10.766Z,63.28
2023-05-18T05:13:32.988Z,63.07
2023-05-18T05:15:54.517Z,63.10
2023-05-18T05:18:16.088Z,62.72
2023-05-18T05:20:37.539Z,62.83
2023-05-18T05:22:59.067Z,62.63
2023-05-18T05:25:21.581Z,62.41
2023-05-18T05:27:43.066Z,62.44
2023-05-18T05:30:05.269Z,63.65
2023-05-18T05:32:26.819Z,64.71
2023-05-18T05:34:50.365Z,65.55
2023-05-18T05:37:11.832Z,63.91
2023-05-18T05:39:33.275Z,63.12
2023-05-18T05:41:54.798Z,63.15
2023-05-18T05:44:16.257Z,62.56
2023-05-18T05:46:37.830Z,62.37
2023-05-18T05:48:59.445Z,62.20
2023-05-18T05:51:20.967Z,61.85
2023-05-18T05:53:43.532Z,61.47
2023-05-18T05:56:05.204Z,61.44
2023-05-18T05:58:26.719Z,61.13
2023-05-18T06:00:48.691Z,60.76
2023-05-18T06:03:10.197Z,60.27
2023-05-18T06:05:31.934Z,60.18
2023-05-18T06:07:53.822Z,59.88
2023-05-18T06:10:15.416Z,60.13
2023-05-18T06:12:37.162Z,60.25
2023-05-18T06:14:58.686Z,60.98
2023-05-18T06:17:20.413Z,61.19
2023-05-18T06:19:42.094Z,61.43
2023-05-18T06:22:03.746Z,61.76
2023-05-18T06:24:25.396Z,60.98
2023-05-18T06:26:46.867Z,60.19
2023-05-18T06:29:08.977Z,60.70
2023-05-18T06:31:30.803Z,60.53
2023-05-18T06:33:52.342Z,60.12
2023-05-18T06:36:15.461Z,59.11
2023-05-18T06:38:36.960Z,59.56
2023-05-18T06:40:58.686Z,58.84
2023-05-18T06:43:20.227Z,58.93
2023-05-18T06:45:41.791Z,56.94
2023-05-18T06:48:03.411Z,57.60
2023-05-18T06:50:24.989Z,57.96
2023-05-18T06:52:46.561Z,57.11
2023-05-18T06:55:09.156Z,56.01
2023-05-18T06:57:31.880Z,55.94
2023-05-18T06:59:53.940Z,55.22
2023-05-18T07:02:15.413Z,55.82
2023-05-18T07:04:36.940Z,55.90
2023-05-18T07:06:58.417Z,55.64
2023-05-18T07:09:19.859Z,55.67
2023-05-18T07:11:41.481Z,54.50
2023-05-18T07:14:02.968Z,55.19
2023-05-18T07:16:26.538Z,54.33
2023-05-18T07:18:48.115Z,54.02
2023-05-18T07:21:09.661Z,54.93
2023-05-18T07:23:31.212Z,53.08
2023-05-18T07:25:52.707Z,52.86
2023-05-18T07:28:14.175Z,53.19
2023-05-18T07:30:35.744Z,52.44
2023-05-18T07:32:57.405Z,52.96
2023-05-18T07:35:22.683Z,53.31
2023-05-18T07:37:44.156Z,53.22
2023-05-18T07:40:06.269Z,52.19
2023-05-18T07:42:28.110Z,51.30
2023-05-18T07:44:49.611Z,51.03
2023-05-18T07:47:11.661Z,50.88
2023-05-18T07:49:33.247Z,51.10
2023-05-18T07:51:54.706Z,50.64
2023-05-18T07:54:16.217Z,50.37
2023-05-18T07:56:37.881Z,50.18
2023-05-18T07:58:59.350Z,51.79
2023-05-18T08:01:22.146Z,49.83
2023-05-18T08:03:43.756Z,49.53
2023-05-18T08:06:05.588Z,48.23
2023-05-18T08:08:27.165Z,47.86
2023-05-18T08:10:48.617Z,47.59
2023-05-18T08:13:10.290Z,47.36
2023-05-18T08:15:32.091Z,48.69
2023-05-18T08:17:55.106Z,48.43
2023-05-18T08:20:17.269Z,47.54
2023-05-18T08:22:38.887Z,47.03
2023-05-18T08:25:01.404Z,47.87
2023-05-18T08:27:22.891Z,47.53
2023-05-18T08:29:44.362Z,46.82
2023-05-18T08:32:07.183Z,47.25
2023-05-18T08:34:30.151Z,47.67
2023-05-18T08:36:52.553Z,48.45
2023-05-18T08:39:14.000Z,46.30
2023-05-18T08:41:38.798Z,46.79
2023-05-18T08:44:09.607Z,46.59
2023-05-18T08:46:37.973Z,46.55
2023-05-18T08:49:01.172Z,45.82
2023-05-18T08:51:23.309Z,46.66
2023-05-18T08:53:45.638Z,45.01
2023-05-18T08:56:09.708Z,45.01
2023-05-18T08:58:48.435Z,42.53
2023-05-18T09:01:10.186Z,42.72
2023-05-18T09:03:32.531Z,42.36
2023-05-18T09:05:55.928Z,42.42
2023-05-18T09:08:18.854Z,42.46
2023-05-18T09:10:40.517Z,42.03
2023-05-18T09:13:05.316Z,42.33
2023-05-18T09:15:28.029Z,42.43
2023-05-18T09:17:49.592Z,42.84
2023-05-18T09:20:12.230Z,43.11
2023-05-18T09:22:36.907Z,42.82
2023-05-18T09:24:58.609Z,41.28
2023-05-18T09:27:21.513Z,42.01
2023-05-18T09:29:54.292Z,41.23
2023-05-18T09:32:16.585Z,41.85
2023-05-18T09:34:42.656Z,41.53
2023-05-18T09:37:04.372Z,41.25
2023-05-18T09:39:25.895Z,38.38
2023-05-18T09:41:47.378Z,38.87
2023-05-18T09:44:12.723Z,38.64
2023-05-18T09:46:36.179Z,37.74
2023-05-18T09:48:57.638Z,39.57
2023-05-18T09:51:19.181Z,37.91
2023-05-18T09:53:40.689Z,38.11
2023-05-18T09:56:06.850Z,37.38
2023-05-18T09:58:32.933Z,36.52
2023-05-18T10:01:01.525Z,36.56
2023-05-18T10:03:24.873Z,36.21
2023-05-18T10:05:46.353Z,35.68
2023-05-18T10:08:07.805Z,35.54
2023-05-18T10:10:29.908Z,35.03
2023-05-18T10:12:52.761Z,35.22
2023-05-18T10:15:16.011Z,34.43
2023-05-18T10:17:42.822Z,34.86
2023-05-18T10:20:08.717Z,34.80
2023-05-18T10:22:30.397Z,34.37
2023-05-18T10:24:52.796Z,33.55
2023-05-18T10:27:16.625Z,34.41
2023-05-18T10:29:38.998Z,32.81
2023-05-18T10:32:06.028Z,32.99
2023-05-18T10:34:30.109Z,32.16
2023-05-18T10:36:51.741Z,32.29
2023-05-18T10:39:13.389Z,31.95
2023-05-18T10:41:36.675Z,31.68
2023-05-18T10:44:03.854Z,31.90
2023-05-18T10:46:27.122Z,32.62
2023-05-18T10:48:51.469Z,32.92
2023-05-18T10:51:14.887Z,32.72
2023-05-18T10:53:37.003Z,32.20
2023-05-18T10:55:59.088Z,32.75
2023-05-18T10:58:23.607Z,32.71
2023-05-18T11:00:52.202Z,33.31
2023-05-18T11:03:14.832Z,32.89
2023-05-18T11:05:36.432Z,32.05
2023-05-18T11:08:05.741Z,32.24
2023-05-18T11:10:43.651Z,31.52
2023-05-18T11:13:07.162Z,31.83
2023-05-18T11:15:53.832Z,32.36
2023-05-18T11:18:15.694Z,32.33
2023-05-18T11:20:37.187Z,32.62
2023-05-18T11:22:58.608Z,31.54
2023-05-18T11:25:26.240Z,32.26
2023-05-18T11:27:47.980Z,31.67
2023-05-18T11:30:42.203Z,32.46
2023-05-18T11:33:09.681Z,32.78
2023-05-18T11:35:31.374Z,32.99
2023-05-18T11:37:52.865Z,31.83
2023-05-18T11:40:47.096Z,32.58
2023-05-18T11:43:08.555Z,31.46
2023-05-18T11:45:33.542Z,31.77
2023-05-18T11:47:57.218Z,31.86
2023-05-18T11:50:18.847Z,31.82
2023-05-18T11:52:49.209Z,30.58
2023-05-18T11:55:14.271Z,30.80
2023-05-18T11:57:35.687Z,30.49
2023-05-18T11:59:58.969Z,31.47
2023-05-18T12:02:23.978Z,31.05
2023-05-18T12:04:50.794Z,31.45
2023-05-18T12:07:13.042Z,31.25
2023-05-18T12:09:35.172Z,30.89
2023-05-18T12:11:56.691Z,30.69
2023-05-18T12:14:21.815Z,31.36
2023-05-18T12:16:43.898Z,31.52
2023-05-18T12:19:08.158Z,31.42
2023-05-18T12:21:29.662Z,31.70
2023-05-18T12:24:01.073Z,30.62
2023-05-18T12:26:25.887Z,31.34
2023-05-18T12:28:47.446Z,31.15
2023-05-18T12:31:09.164Z,30.66
2023-05-18T12:33:33.590Z,30.05
2023-05-18T12:35:55.075Z,29.59
2023-05-18T12:38:17.497Z,28.03
2023-05-18T12:40:46.449Z,27.39
2023-05-18T12:43:07.968Z,27.72
2023-05-18T12:45:32.172Z,27.12
2023-05-18T12:47:55.550Z,26.77
2023-05-18T12:50:17.714Z,27.10
2023-05-18T12:52:39.888Z,26.00
2023-05-18T12:55:01.486Z,25.84
2023-05-18T12:57:26.543Z,26.11
2023-05-18T12:59:50.240Z,26.70
2023-05-18T13:02:25.169Z,26.59
2023-05-18T13:04:46.653Z,26.55
2023-05-18T13:07:12.223Z,26.86
2023-05-18T13:09:33.748Z,26.78
2023-05-18T13:12:07.453Z,27.34
2023-05-18T13:14:31.463Z,27.09
2023-05-18T13:16:53.011Z,26.24
2023-05-18T13:19:17.911Z,25.99
2023-05-18T13:21:39.476Z,25.73
2023-05-18T13:24:01.393Z,26.36
2023-05-18T13:26:23.781Z,26.60
2023-05-18T13:28:47.773Z,25.91
2023-05-18T13:31:10.974Z,26.25
2023-05-18T13:33:34.308Z,25.59
2023-05-18T13:35:55.888Z,25.33
2023-05-18T13:38:17.496Z,26.38
2023-05-18T13:40:40.434Z,26.96
2023-05-18T13:43:02.103Z,25.08
2023-05-18T13:45:23.860Z,25.10
2023-05-18T13:47:49.720Z,24.05
2023-05-18T13:50:11.576Z,23.12
2023-05-18T13:52:33.749Z,23.24
2023-05-18T13:54:55.257Z,23.32
2023-05-18T13:57:16.746Z,22.95
2023-05-18T13:59:38.190Z,23.07
2023-05-18T14:01:59.796Z,23.50
2023-05-18T14:04:21.279Z,23.82
2023-05-18T14:06:42.773Z,23.74
2023-05-18T14:09:04.253Z,24.50
2023-05-18T14:11:25.721Z,23.70
2023-05-18T14:13:47.220Z,23.21
2023-05-18T14:16:08.707Z,21.64
2023-05-18T14:18:30.196Z,22.12
2023-05-18T14:20:51.668Z,21.67
2023-05-18T14:23:13.145Z,22.38
2023-05-18T14:25:34.646Z,22.72
2023-05-18T14:27:56.251Z,22.53
2023-05-18T14:30:17.747Z,23.12
2023-05-18T14:32:39.259Z,22.90
2023-05-18T14:35:00.797Z,23.29
2023-05-18T14:37:22.478Z,23.90
2023-05-18T14:39:44.172Z,24.18
2023-05-18T14:42:06.405Z,23.33
2023-05-18T14:44:27.877Z,23.05
2023-05-18T14:46:49.504Z,22.06
2023-05-18T14:49:11.014Z,22.16
2023-05-18T14:51:32.553Z,22.98
2023-05-18T14:53:54.035Z,23.55
2023-05-18T14:56:15.698Z,23.24
2023-05-18T14:58:37.224Z,23.72
2023-05-18T15:00:58.859Z,23.25
2023-05-18T15:03:20.478Z,23.26
2023-05-18T15:05:44.128Z,24.72
2023-05-18T15:08:05.892Z,25.08
2023-05-18T15:10:27.516Z,25.13
2023-05-18T15:12:49.442Z,26.05
2023-05-18T15:15:11.218Z,25.34
2023-05-18T15:17:32.849Z,26.19
2023-05-18T15:19:54.361Z,26.43
2023-05-18T15:22:15.835Z,26.99
2023-05-18T15:24:37.283Z,26.95
2023-05-18T15:26:58.956Z,27.48
2023-05-18T15:29:21.622Z,28.04
2023-05-18T15:31:43.172Z,27.83
2023-05-18T15:34:04.676Z,26.78
2023-05-18T15:36:26.226Z,27.72
2023-05-18T15:38:47.678Z,27.87
2023-05-18T15:41:09.220Z,27.36
2023-05-18T15:43:31.117Z,27.50
2023-05-18T15:45:53.169Z,27.53
2023-05-18T15:48:14.736Z,27.55
2023-05-18T15:50:36.224Z,26.85
2023-05-18T15:52:57.682Z,26.17
2023-05-18T15:55:19.157Z,26.03
2023-05-18T15:57:40.654Z,25.76
2023-05-18T16:00:03.071Z,25.30
2023-05-18T16:02:25.885Z,24.29
2023-05-18T16:04:47.636Z,24.21
2023-05-18T16:07:09.130Z,23.65
2023-05-18T16:09:30.709Z,22.92
2023-05-18T16:11:52.410Z,23.66
2023-05-18T16:14:13.891Z,24.30
2023-05-18T16:16:35.566Z,24.62
2023-05-18T16:18:57.789Z,23.64
2023-05-18T16:21:19.376Z,24.10
2023-05-18T16:23:41.726Z,25.24
2023-05-18T16:26:05.346Z,26.23
2023-05-18T16:28:26.860Z,26.72
2023-05-18T16:30:48.330Z,26.28
2023-05-18T16:33:09.874Z,26.92
2023-05-18T16:35:31.908Z,26.90
2023-05-18T16:37:53.386Z,26.92
2023-05-18T16:40:14.997Z,26.97
2023-05-18T16:42:36.546Z,27.36
2023-05-18T16:44:58.396Z,27.36
2023-05-18T16:47:19.884Z,28.57
2023-05-18T16:49:43.995Z,27.92
2023-05-18T16:52:06.059Z,28.31
2023-05-18T16:54:27.521Z,28.66
2023-05-18T16:56:49.641Z,28.63
2023-05-18T16:59:12.231Z,28.44
2023-05-18T17:01:34.032Z,28.61
2023-05-18T17:03:55.764Z,28.74
2023-05-18T17:06:20.058Z,29.70
2023-05-18T17:08:41.534Z,28.96
2023-05-18T17:11:03.031Z,29.65
2023-05-18T17:13:24.486Z,29.77
2023-05-18T17:15:45.996Z,29.71
2023-05-18T17:18:07.613Z,30.48
2023-05-18T17:20:29.306Z,30.17
2023-05-18T17:22:50.861Z,30.18
2023-05-18T17:25:12.350Z,29.90
2023-05-18T17:27:33.885Z,30.11
2023-05-18T17:29:55.372Z,30.93
2023-05-18T17:32:16.902Z,30.88
2023-05-18T17:34:38.389Z,30.61
2023-05-18T17:36:59.986Z,31.52
2023-05-18T17:39:21.436Z,32.54
2023-05-18T17:41:43.883Z,32.35
2023-05-18T17:44:05.437Z,32.19
2023-05-18T17:46:27.346Z,32.64
2023-05-18T17:48:49.050Z,32.37
2023-05-18T17:51:10.637Z,32.34
2023-05-18T17:53:32.124Z,32.66
2023-05-18T17:55:53.622Z,32.94
2023-05-18T17:58:15.120Z,33.47
2023-05-18T18:00:36.582Z,33.62
2023-05-18T18:02:58.113Z,33.33
2023-05-18T18:05:19.708Z,33.51
2023-05-18T18:07:41.247Z,34.08
2023-05-18T18:10:02.707Z,34.10
2023-05-18T18:12:24.418Z,34.33
2023-05-18T18:14:46.046Z,34.45
2023-05-18T18:17:07.554Z,35.16
2023-05-18T18:19:29.427Z,35.56
2023-05-18T18:21:51.121Z,35.93
2023-05-18T18:24:14.060Z,36.24
2023-05-18T18:26:40.461Z,36.39
2023-05-18T18:29:01.933Z,36.80
2023-05-18T18:31:23.462Z,37.29
2023-05-18T18:33:49.998Z,37.67
2023-05-18T18:36:11.492Z,37.98
2023-05-18T18:38:34.035Z,38.04
2023-05-18T18:41:01.598Z,39.09
2023-05-18T18:43:23.355Z,38.90
2023-05-18T18:45:45.001Z,39.49
2023-05-18T18:48:06.846Z,39.31
2023-05-18T18:50:29.044Z,39.40
2023-05-18T18:52:50.576Z,39.65
2023-05-18T18:55:12.084Z,39.64
2023-05-18T18:57:33.791Z,40.04
2023-05-18T18:59:56.218Z,40.20
2023-05-18T19:02:19.136Z,40.58
2023-05-18T19:04:41.052Z,40.82
2023-05-18T19:07:03.118Z,40.91
2023-05-18T19:09:24.706Z,41.49
2023-05-18T19:11:46.472Z,42.01
2023-05-18T19:14:07.931Z,42.32
2023-05-18T19:16:29.536Z,42.19
2023-05-18T19:18:51.061Z,42.17
2023-05-18T19:21:12.594Z,42.46
2023-05-18T19:23:34.026Z,42.76
2023-05-18T19:25:55.638Z,42.71
2023-05-18T19:28:17.140Z,43.11
2023-05-18T19:30:38.650Z,43.21
2023-05-18T19:33:00.243Z,43.45
2023-05-18T19:35:23.802Z,43.37
2023-05-18T19:37:45.339Z,42.95
2023-05-18T19:40:07.245Z,42.83
2023-05-18T19:42:28.732Z,43.68
2023-05-18T19:44:50.216Z,43.64
2023-05-18T19:47:11.696Z,44.33
2023-05-18T19:49:33.234Z,44.31
2023-05-18T19:51:54.680Z,43.94
2023-05-18T19:54:16.508Z,43.19
2023-05-18T19:56:38.062Z,43.77
2023-05-18T19:58:59.536Z,44.31
2023-05-18T20:01:24.571Z,44.46
2023-05-18T20:03:47.184Z,44.77
2023-05-18T20:06:08.688Z,44.35
2023-05-18T20:08:30.233Z,44.38
2023-05-18T20:10:52.486Z,44.33
2023-05-18T20:13:14.035Z,45.09
2023-05-18T20:15:37.171Z,45.04
2023-05-18T20:17:58.699Z,45.00
2023-05-18T20:20:20.685Z,45.32
2023-05-18T20:22:42.229Z,45.23
2023-05-18T20:25:05.427Z,45.22
2023-05-18T20:27:27.450Z,46.11
2023-05-18T20:29:48.915Z,45.71
2023-05-18T20:32:10.709Z,46.18
2023-05-18T20:34:32.199Z,46.24
2023-05-18T20:36:53.727Z,45.91
2023-05-18T20:39:15.175Z,47.07
2023-05-18T20:41:40.308Z,46.47
2023-05-18T20:44:02.181Z,46.54
2023-05-18T20:46:24.594Z,47.56
2023-05-18T20:48:47.332Z,46.68
2023-05-18T20:51:15.174Z,46.89
2023-05-18T20:53:36.623Z,47.22
2023-05-18T20:56:01.120Z,47.21
2023-05-18T20:58:22.894Z,47.73
2023-05-18T21:00:45.353Z,47.82
2023-05-18T21:03:07.495Z,47.62
2023-05-18T21:05:29.807Z,48.20
2023-05-18T21:07:51.662Z,47.98
2023-05-18T21:10:13.206Z,48.41
2023-05-18T21:12:34.695Z,48.50
2023-05-18T21:14:56.218Z,48.69
2023-05-18T21:17:17.716Z,49.25
2023-05-18T21:19:39.229Z,49.27
2023-05-18T21:22:01.009Z,49.63
2023-05-18T21:24:22.505Z,50.19
2023-05-18T21:26:43.964Z,51.84
2023-05-18T21:29:06.244Z,50.76
2023-05-18T21:31:27.803Z,51.46
2023-05-18T21:33:51.042Z,50.96
2023-05-18T21:36:13.619Z,50.59
2023-05-18T21:38:35.334Z,50.19
2023-05-18T21:40:57.715Z,50.26
2023-05-18T21:43:19.180Z,50.74
2023-05-18T21:45:40.893Z,50.32
2023-05-18T21:48:02.500Z,49.90
2023-05-18T21:50:24.029Z,51.86
2023-05-18T21:52:45.549Z,52.66
2023-05-18T21:55:07.350Z,52.01
2023-05-18T21:57:28.812Z,51.69
2023-05-18T21:59:50.464Z,51.84
2023-05-18T22:02:12.084Z,51.88
2023-05-18T22:04:33.630Z,51.79
2023-05-18T22:06:55.301Z,51.82
2023-05-18T22:09:16.880Z,51.67
2023-05-18T22:11:38.412Z,52.14
2023-05-18T22:14:00.608Z,51.94
2023-05-18T22:16:22.131Z,51.87
2023-05-18T22:18:43.662Z,53.75
2023-05-18T22:21:05.156Z,54.52
2023-05-18T22:23:27.105Z,53.54
2023-05-18T22:25:48.810Z,53.55
2023-05-18T22:28:10.406Z,55.47
2023-05-18T22:30:33.704Z,54.43
2023-05-18T22:32:57.540Z,54.72
2023-05-18T22:35:19.244Z,54.52
2023-05-18T22:37:40.736Z,54.07
2023-05-18T22:40:03.283Z,55.01
2023-05-18T22:42:24.740Z,55.42
2023-05-18T22:44:46.212Z,55.31
2023-05-18T22:47:07.678Z,55.83
2023-05-18T22:49:29.205Z,55.21
2023-05-18T22:51:52.564Z,55.03
2023-05-18T22:54:14.124Z,55.64
2023-05-18T22:56:35.646Z,55.38
2023-05-18T22:58:57.186Z,56.71
2023-05-18T23:01:18.739Z,56.95
2023-05-18T23:03:40.240Z,56.17
2023-05-18T23:06:03.194Z,56.15
2023-05-18T23:08:24.918Z,55.93
2023-05-18T23:10:46.394Z,57.36
2023-05-18T23:13:08.015Z,56.85
2023-05-18T23:15:29.550Z,57.12
2023-05-18T23:17:54.613Z,57.92
2023-05-18T23:20:16.201Z,58.96
2023-05-18T23:22:37.663Z,58.07
2023-05-18T23:24:59.412Z,57.89
2023-05-18T23:27:20.936Z,58.46
2023-05-18T23:29:42.784Z,57.86
2023-05-18T23:32:04.622Z,58.11
2023-05-18T23:34:27.537Z,58.17
2023-05-18T23:36:53.681Z,57.75
2023-05-18T23:39:15.214Z,62.39
2023-05-18T23:41:37.640Z,61.40
2023-05-18T23:43:59.581Z,59.96
2023-05-18T23:46:21.633Z,61.01
2023-05-18T23:48:43.392Z,59.99
2023-05-18T23:51:05.728Z,60.19
2023-05-18T23:53:30.407Z,61.03
2023-05-18T23:55:51.967Z,61.72
2023-05-18T23:58:13.700Z,60.33
